createdAt,value
2017-04-19T00:00:25.723Z,1029
2017-04-19T00:01:28.072Z,1029
2017-04-19T00:02:30.407Z,1029
2017-04-19T00:03:33.552Z,1029.1
2017-04-19T00:04:35.892Z,1029.1
2017-04-19T00:05:38.287Z,1029
2017-04-19T00:07:43.033Z,1029.1
2017-04-19T00:08:46.128Z,1029
2017-04-19T00:10:50.873Z,1029
2017-04-19T00:11:53.206Z,1029
2017-04-19T00:12:56.049Z,1029
2017-04-19T00:13:58.640Z,1029
2017-04-19T00:15:00.993Z,1029
2017-04-19T00:16:03.337Z,1029
2017-04-19T00:17:05.680Z,1029
2017-04-19T00:19:11.177Z,1029
2017-04-19T00:20:13.518Z,1029
2017-04-19T00:21:16.091Z,1029
2017-04-19T00:22:18.487Z,1029
2017-04-19T00:23:20.830Z,1029
2017-04-19T00:24:23.924Z,1029
2017-04-19T00:25:26.264Z,1029
2017-04-19T00:26:28.538Z,1029.1
2017-04-19T00:27:31.259Z,1029
2017-04-19T00:28:33.836Z,1029
2017-04-19T00:29:36.205Z,1029
2017-04-19T00:30:38.553Z,1029
2017-04-19T00:31:40.898Z,1029
2017-04-19T00:32:43.614Z,1029.1
2017-04-19T00:33:45.955Z,1029
2017-04-19T00:34:49.105Z,1029
2017-04-19T00:35:51.447Z,1029
2017-04-19T00:36:53.842Z,1029
2017-04-19T00:37:56.183Z,1029
2017-04-19T00:38:58.525Z,1029
2017-04-19T00:40:01.619Z,1029
2017-04-19T00:41:03.964Z,1029.1
2017-04-19T00:42:06.306Z,1029
2017-04-19T00:43:08.646Z,1029.1
2017-04-19T00:45:14.148Z,1029
2017-04-19T00:46:16.492Z,1029.1
2017-04-19T00:47:18.699Z,1029
2017-04-19T00:48:21.537Z,1029.1
2017-04-19T00:49:23.944Z,1029
2017-04-19T00:50:26.531Z,1029
2017-04-19T00:51:28.787Z,1029
2017-04-19T00:52:31.493Z,1029.1
2017-04-19T00:54:36.237Z,1029.1
2017-04-19T00:55:39.384Z,1029
2017-04-19T00:56:41.727Z,1029.1
2017-04-19T00:57:44.069Z,1029.1
2017-04-19T00:58:46.643Z,1029.1
2017-04-19T00:59:48.998Z,1029.1
2017-04-19T01:00:51.649Z,1029.1
2017-04-19T01:01:54.019Z,1029.1
2017-04-19T01:02:56.370Z,1029.1
2017-04-19T01:03:59.216Z,1029.1
2017-04-19T01:05:01.554Z,1029.1
2017-04-19T01:06:04.196Z,1029.1
2017-04-19T01:08:09.055Z,1029.2
2017-04-19T01:09:11.761Z,1029.2
2017-04-19T01:10:14.100Z,1029.2
2017-04-19T01:12:19.511Z,1029.2
2017-04-19T01:13:21.859Z,1029.2
2017-04-19T01:14:24.202Z,1029.2
2017-04-19T01:15:26.545Z,1029.2
2017-04-19T01:16:29.389Z,1029.2
2017-04-19T01:17:32.028Z,1029.3
2017-04-19T01:18:34.363Z,1029.3
2017-04-19T01:19:36.702Z,1029.3
2017-04-19T01:20:39.411Z,1029.3
2017-04-19T01:21:41.750Z,1029.3
2017-04-19T01:22:44.341Z,1029.3
2017-04-19T01:23:46.546Z,1029.3
2017-04-19T01:24:49.398Z,1029.3
2017-04-19T01:25:51.738Z,1029.3
2017-04-19T01:26:54.078Z,1029.3
2017-04-19T01:27:57.226Z,1029.3
2017-04-19T01:28:59.433Z,1029.3
2017-04-19T01:30:01.780Z,1029.3
2017-04-19T01:31:04.123Z,1029.3
2017-04-19T01:32:06.974Z,1029.3
2017-04-19T01:33:09.567Z,1029.4
2017-04-19T01:34:11.772Z,1029.4
2017-04-19T01:35:14.115Z,1029.3
2017-04-19T01:36:16.961Z,1029.4
2017-04-19T01:37:19.165Z,1029.4
2017-04-19T01:38:22.125Z,1029.4
2017-04-19T01:39:24.469Z,1029.4
2017-04-19T01:40:26.815Z,1029.4
2017-04-19T01:42:32.058Z,1029.4
2017-04-19T01:43:34.512Z,1029.4
2017-04-19T01:44:36.717Z,1029.4
2017-04-19T01:45:39.430Z,1029.4
2017-04-19T01:46:42.007Z,1029.4
2017-04-19T01:47:44.351Z,1029.4
2017-04-19T01:48:46.995Z,1029.4
2017-04-19T01:49:49.339Z,1029.4
2017-04-19T01:50:52.046Z,1029.4
2017-04-19T01:51:54.117Z,1029.4
2017-04-19T01:52:56.957Z,1029.4
2017-04-19T01:53:59.590Z,1029.4
2017-04-19T01:55:01.926Z,1029.4
2017-04-19T01:56:04.265Z,1029.5
2017-04-19T01:57:07.113Z,1029.4
2017-04-19T01:58:09.458Z,1029.5
2017-04-19T01:59:12.101Z,1029.5
2017-04-19T02:01:16.838Z,1029.5
2017-04-19T02:02:19.548Z,1029.5
2017-04-19T02:03:21.888Z,1029.5
2017-04-19T02:04:24.539Z,1029.5
2017-04-19T02:05:26.887Z,1029.5
2017-04-19T02:06:29.222Z,1029.5
2017-04-19T02:08:34.469Z,1029.5
2017-04-19T02:09:37.109Z,1029.5
2017-04-19T02:10:39.445Z,1029.5
2017-04-19T02:12:44.186Z,1029.5
2017-04-19T02:13:47.026Z,1029.6
2017-04-19T02:14:49.621Z,1029.5
2017-04-19T02:15:51.824Z,1029.5
2017-04-19T02:16:54.167Z,1029.5
2017-04-19T02:18:59.409Z,1029.6
2017-04-19T02:20:02.046Z,1029.6
2017-04-19T02:21:04.253Z,1029.6
2017-04-19T02:22:07.098Z,1029.6
2017-04-19T02:23:09.365Z,1029.6
2017-04-19T02:24:12.074Z,1029.6
2017-04-19T02:25:14.716Z,1029.6
2017-04-19T02:26:17.058Z,1029.6
2017-04-19T02:27:19.398Z,1029.6
2017-04-19T02:28:21.740Z,1029.6
2017-04-19T02:29:24.585Z,1029.6
2017-04-19T02:30:27.228Z,1029.6
2017-04-19T02:31:29.578Z,1029.6
2017-04-19T02:33:34.320Z,1029.5
2017-04-19T02:34:37.032Z,1029.6
2017-04-19T02:35:39.729Z,1029.6
2017-04-19T02:37:44.471Z,1029.6
2017-04-19T02:38:46.878Z,1029.6
2017-04-19T02:39:49.218Z,1029.6
2017-04-19T02:40:52.362Z,1029.6
2017-04-19T02:41:54.198Z,1029.6
2017-04-19T02:42:57.040Z,1029.6
2017-04-19T02:43:59.378Z,1029.7
2017-04-19T02:45:01.719Z,1029.7
2017-04-19T02:46:04.863Z,1029.7
2017-04-19T02:47:06.754Z,1029.7
2017-04-19T02:48:09.461Z,1029.7
2017-04-19T02:49:11.794Z,1029.7
2017-04-19T02:50:14.138Z,1029.7
2017-04-19T02:51:17.330Z,1029.7
2017-04-19T02:54:24.138Z,1029.6
2017-04-19T02:55:26.978Z,1029.7
2017-04-19T02:56:29.617Z,1029.6
2017-04-19T02:57:31.956Z,1029.7
2017-04-19T02:58:34.157Z,1029.6
2017-04-19T02:59:37.058Z,1029.7
2017-04-19T03:00:39.400Z,1029.7
2017-04-19T03:02:44.780Z,1029.7
2017-04-19T03:03:46.985Z,1029.7
2017-04-19T03:04:49.332Z,1029.7
2017-04-19T03:05:51.812Z,1029.8
2017-04-19T03:06:54.151Z,1029.7
2017-04-19T03:07:57.294Z,1029.8
2017-04-19T03:08:59.135Z,1029.8
2017-04-19T03:10:01.978Z,1029.8
2017-04-19T03:11:04.244Z,1029.8
2017-04-19T03:12:06.591Z,1029.7
2017-04-19T03:13:09.744Z,1029.8
2017-04-19T03:14:11.585Z,1029.8
2017-04-19T03:15:14.320Z,1029.8
2017-04-19T03:16:16.668Z,1029.8
2017-04-19T03:17:19.508Z,1029.9
2017-04-19T03:18:22.101Z,1029.8
2017-04-19T03:19:24.307Z,1029.8
2017-04-19T03:20:26.674Z,1029.8
2017-04-19T03:21:29.514Z,1029.9
2017-04-19T03:22:31.721Z,1029.9
2017-04-19T03:24:37.226Z,1029.9
2017-04-19T03:25:39.059Z,1029.9
2017-04-19T03:26:41.901Z,1030
2017-04-19T03:27:44.241Z,1029.9
2017-04-19T03:28:46.579Z,1030
2017-04-19T03:29:49.720Z,1030
2017-04-19T03:30:51.551Z,1030
2017-04-19T03:31:54.450Z,1030
2017-04-19T03:32:56.812Z,1030
2017-04-19T03:33:59.161Z,1030
2017-04-19T03:35:01.923Z,1030
2017-04-19T03:36:04.265Z,1030
2017-04-19T03:37:06.604Z,1030
2017-04-19T03:38:09.449Z,1030.1
2017-04-19T03:39:11.656Z,1030
2017-04-19T03:40:14.298Z,1030
2017-04-19T03:41:16.503Z,1030.1
2017-04-19T03:42:19.354Z,1030.1
2017-04-19T03:43:21.926Z,1030.1
2017-04-19T03:44:24.265Z,1030.1
2017-04-19T03:45:26.860Z,1030.1
2017-04-19T03:47:31.600Z,1030.1
2017-04-19T03:48:34.442Z,1030.2
2017-04-19T03:49:36.669Z,1030.2
2017-04-19T03:50:39.255Z,1030.2
2017-04-19T03:51:41.455Z,1030.2
2017-04-19T03:52:44.296Z,1030.2
2017-04-19T03:53:46.499Z,1030.2
2017-04-19T03:54:49.347Z,1030.2
2017-04-19T03:55:51.986Z,1030.3
2017-04-19T03:56:54.191Z,1030.2
2017-04-19T03:57:56.528Z,1030.3
2017-04-19T03:58:59.370Z,1030.3
2017-04-19T04:00:01.716Z,1030.3
2017-04-19T04:01:04.286Z,1030.3
2017-04-19T04:02:06.628Z,1030.3
2017-04-19T04:03:09.061Z,1030.3
2017-04-19T04:04:11.903Z,1030.3
2017-04-19T04:05:14.246Z,1030.3
2017-04-19T04:06:16.886Z,1030.4
2017-04-19T04:07:19.089Z,1030.4
2017-04-19T04:08:21.931Z,1030.4
2017-04-19T04:09:24.326Z,1030.4
2017-04-19T04:10:26.665Z,1030.4
2017-04-19T04:11:29.257Z,1030.4
2017-04-19T04:12:31.601Z,1030.4
2017-04-19T04:13:33.944Z,1030.5
2017-04-19T04:14:36.786Z,1030.5
2017-04-19T04:15:39.125Z,1030.5
2017-04-19T04:16:41.907Z,1030.5
2017-04-19T04:17:44.021Z,1030.5
2017-04-19T04:18:46.863Z,1030.5
2017-04-19T04:19:49.197Z,1030.6
2017-04-19T04:20:51.597Z,1030.5
2017-04-19T04:21:54.184Z,1030.6
2017-04-19T04:22:56.520Z,1030.5
2017-04-19T04:23:59.364Z,1030.6
2017-04-19T04:25:01.739Z,1030.6
2017-04-19T04:26:04.078Z,1030.6
2017-04-19T04:27:06.669Z,1030.6
2017-04-19T04:28:09.004Z,1030.6
2017-04-19T04:29:11.710Z,1030.6
2017-04-19T04:31:16.456Z,1030.6
2017-04-19T04:32:19.546Z,1030.7
2017-04-19T04:33:21.385Z,1030.7
2017-04-19T04:34:24.226Z,1030.7
2017-04-19T04:35:26.566Z,1030.7
2017-04-19T04:36:28.905Z,1030.6
2017-04-19T04:37:31.981Z,1030.7
2017-04-19T04:38:34.343Z,1030.7
2017-04-19T04:39:36.682Z,1030.7
2017-04-19T04:40:39.017Z,1030.8
2017-04-19T04:41:41.351Z,1030.7
2017-04-19T04:42:44.309Z,1030.7
2017-04-19T04:43:46.647Z,1030.7
2017-04-19T04:44:48.993Z,1030.7
2017-04-19T04:45:51.658Z,1030.8
2017-04-19T04:46:54.001Z,1030.8
2017-04-19T04:47:56.640Z,1030.8
2017-04-19T04:48:58.981Z,1030.9
2017-04-19T04:50:01.332Z,1030.8
2017-04-19T04:51:04.177Z,1030.9
2017-04-19T04:52:06.519Z,1030.8
2017-04-19T04:53:09.108Z,1030.9
2017-04-19T04:54:11.500Z,1031
2017-04-19T04:55:13.836Z,1031
2017-04-19T04:56:16.466Z,1030.9
2017-04-19T04:57:18.804Z,1030.9
2017-04-19T04:58:21.902Z,1031
2017-04-19T05:00:26.646Z,1031
2017-04-19T05:01:29.181Z,1031
2017-04-19T05:02:31.388Z,1031
2017-04-19T05:03:34.482Z,1030.9
2017-04-19T05:04:36.319Z,1031
2017-04-19T05:05:39.157Z,1031
2017-04-19T05:06:41.493Z,1031
2017-04-19T05:07:43.831Z,1031
2017-04-19T05:08:46.926Z,1031
2017-04-19T05:09:48.759Z,1031.1
2017-04-19T05:10:51.601Z,1031
2017-04-19T05:11:53.939Z,1031.1
2017-04-19T05:12:56.277Z,1031.1
2017-04-19T05:15:01.690Z,1031.1
2017-04-19T05:16:04.029Z,1031.1
2017-04-19T05:17:06.363Z,1031.1
2017-04-19T05:18:08.704Z,1031.1
2017-04-19T05:19:11.540Z,1031.1
2017-04-19T05:20:14.128Z,1031.1
2017-04-19T05:21:16.468Z,1031.1
2017-04-19T05:22:18.811Z,1031.1
2017-04-19T05:23:21.653Z,1031.2
2017-04-19T05:24:23.992Z,1031.1
2017-04-19T05:25:26.579Z,1031.2
2017-04-19T05:26:28.920Z,1031.3
2017-04-19T05:27:31.258Z,1031.2
2017-04-19T05:28:34.101Z,1031.2
2017-04-19T05:29:36.464Z,1031.2
2017-04-19T05:30:39.101Z,1031.2
2017-04-19T05:31:41.439Z,1031.3
2017-04-19T05:33:46.181Z,1031.2
2017-04-19T05:34:49.030Z,1031.2
2017-04-19T05:35:51.669Z,1031.2
2017-04-19T05:36:54.003Z,1031.2
2017-04-19T05:37:56.577Z,1031.3
2017-04-19T05:38:58.915Z,1031.2
2017-04-19T05:40:01.254Z,1031.3
2017-04-19T05:42:06.781Z,1031.3
2017-04-19T05:43:09.131Z,1031.3
2017-04-19T05:44:11.463Z,1031.2
2017-04-19T05:45:13.798Z,1031.3
2017-04-19T05:46:16.500Z,1031.2
2017-04-19T05:47:18.964Z,1031.3
2017-04-19T05:48:21.302Z,1031.3
2017-04-19T05:49:24.144Z,1031.3
2017-04-19T05:50:26.487Z,1031.3
2017-04-19T05:51:28.912Z,1031.4
2017-04-19T05:52:31.436Z,1031.4
2017-04-19T05:53:34.140Z,1031.3
2017-04-19T05:54:36.398Z,1031.4
2017-04-19T05:55:39.157Z,1031.4
2017-04-19T05:56:41.496Z,1031.4
2017-04-19T05:57:44.223Z,1031.4
2017-04-19T05:58:46.205Z,1031.4
2017-04-19T05:59:49.043Z,1031.4
2017-04-19T06:00:51.382Z,1031.5
2017-04-19T06:01:54.225Z,1031.5
2017-04-19T06:02:56.810Z,1031.4
2017-04-19T06:03:59.148Z,1031.5
2017-04-19T06:05:01.482Z,1031.5
2017-04-19T06:06:03.877Z,1031.5
2017-04-19T06:07:06.716Z,1031.5
2017-04-19T06:08:09.312Z,1031.5
2017-04-19T06:09:11.647Z,1031.6
2017-04-19T06:10:13.849Z,1031.6
2017-04-19T06:11:16.696Z,1031.7
2017-04-19T06:12:19.037Z,1031.6
2017-04-19T06:13:21.630Z,1031.5
2017-04-19T06:14:24.026Z,1031.6
2017-04-19T06:15:26.731Z,1031.6
2017-04-19T06:16:28.937Z,1031.6
2017-04-19T06:17:31.776Z,1031.6
2017-04-19T06:18:34.416Z,1031.6
2017-04-19T06:19:36.756Z,1031.6
2017-04-19T06:20:39.095Z,1031.6
2017-04-19T06:21:41.937Z,1031.7
2017-04-19T06:22:44.276Z,1031.7
2017-04-19T06:23:46.870Z,1031.7
2017-04-19T06:24:49.073Z,1031.7
2017-04-19T06:25:51.919Z,1031.7
2017-04-19T06:26:54.318Z,1031.7
2017-04-19T06:27:57.028Z,1031.7
2017-04-19T06:28:59.611Z,1031.7
2017-04-19T06:30:01.947Z,1031.6
2017-04-19T06:31:04.150Z,1031.6
2017-04-19T06:32:07.051Z,1031.7
2017-04-19T06:33:09.253Z,1031.7
2017-04-19T06:34:12.345Z,1031.7
2017-04-19T06:35:14.182Z,1031.7
2017-04-19T06:36:17.023Z,1031.8
2017-04-19T06:37:19.362Z,1031.8
2017-04-19T06:38:22.205Z,1031.8
2017-04-19T06:39:24.850Z,1031.8
2017-04-19T06:40:27.184Z,1031.8
2017-04-19T06:41:29.519Z,1031.8
2017-04-19T06:42:31.858Z,1031.8
2017-04-19T06:43:34.697Z,1031.8
2017-04-19T06:44:37.413Z,1031.8
2017-04-19T06:45:39.753Z,1031.8
2017-04-19T06:46:42.104Z,1031.8
2017-04-19T06:47:44.442Z,1031.8
2017-04-19T06:48:47.215Z,1031.8
2017-04-19T06:49:49.804Z,1031.8
2017-04-19T06:50:52.151Z,1031.8
2017-04-19T06:51:54.989Z,1031.8
2017-04-19T06:52:57.328Z,1031.8
2017-04-19T06:53:59.667Z,1031.9
2017-04-19T06:55:02.375Z,1031.9
2017-04-19T06:56:04.578Z,1031.9
2017-04-19T06:57:07.284Z,1031.9
2017-04-19T06:58:09.622Z,1032
2017-04-19T06:59:12.469Z,1031.9
2017-04-19T07:00:15.059Z,1031.9
2017-04-19T07:01:17.396Z,1031.9
2017-04-19T07:02:20.105Z,1031.9
2017-04-19T07:03:22.445Z,1031.9
2017-04-19T07:04:24.783Z,1032
2017-04-19T07:05:27.923Z,1032
2017-04-19T07:06:30.262Z,1032
2017-04-19T07:07:32.603Z,1032
2017-04-19T07:08:35.310Z,1031.9
2017-04-19T07:09:37.669Z,1032
2017-04-19T07:10:40.261Z,1031.9
2017-04-19T07:11:42.600Z,1032
2017-04-19T07:12:44.939Z,1031.9
2017-04-19T07:13:47.777Z,1032
2017-04-19T07:15:52.817Z,1032
2017-04-19T07:16:55.023Z,1032
2017-04-19T07:17:57.867Z,1031.9
2017-04-19T07:19:00.205Z,1032
2017-04-19T07:20:02.926Z,1032
2017-04-19T07:21:05.572Z,1031.9
2017-04-19T07:22:07.911Z,1032
2017-04-19T07:23:10.248Z,1032
2017-04-19T07:24:13.086Z,1032.1
2017-04-19T07:25:15.426Z,1032
2017-04-19T07:26:18.070Z,1032
2017-04-19T07:28:22.864Z,1032
2017-04-19T07:29:25.703Z,1032
2017-04-19T07:30:28.042Z,1032
2017-04-19T07:31:30.682Z,1032
2017-04-19T07:32:33.018Z,1032.1
2017-04-19T07:33:35.722Z,1032.1
2017-04-19T07:34:38.423Z,1032.1
2017-04-19T07:35:40.818Z,1032.1
2017-04-19T07:36:43.601Z,1032.1
2017-04-19T07:37:46.003Z,1032.1
2017-04-19T07:38:48.339Z,1032.1
2017-04-19T07:39:50.678Z,1032
2017-04-19T07:40:53.381Z,1032.1
2017-04-19T07:41:55.969Z,1032.1
2017-04-19T07:42:58.309Z,1032.1
2017-04-19T07:44:01.015Z,1032.1
2017-04-19T07:45:03.354Z,1032.1
2017-04-19T07:46:06.067Z,1032.2
2017-04-19T07:47:08.752Z,1032.1
2017-04-19T07:48:11.091Z,1032.1
2017-04-19T07:49:13.429Z,1032.3
2017-04-19T07:50:16.271Z,1032.4
2017-04-19T07:52:21.690Z,1032.2
2017-04-19T07:53:23.558Z,1032.3
2017-04-19T07:54:26.399Z,1032.3
2017-04-19T07:55:28.743Z,1032.3
2017-04-19T07:56:31.082Z,1032.4
2017-04-19T07:57:34.092Z,1032.2
2017-04-19T07:58:36.427Z,1032.1
2017-04-19T07:59:38.761Z,1032.2
2017-04-19T08:00:41.473Z,1032.2
2017-04-19T08:01:43.811Z,1032.2
2017-04-19T08:02:46.817Z,1032.3
2017-04-19T08:03:49.161Z,1032.3
2017-04-19T08:04:51.365Z,1032.2
2017-04-19T08:05:54.069Z,1032.3
2017-04-19T08:06:56.776Z,1032.3
2017-04-19T08:07:59.415Z,1032.3
2017-04-19T08:09:01.578Z,1032.3
2017-04-19T08:10:04.288Z,1032.3
2017-04-19T08:11:06.626Z,1032.3
2017-04-19T08:12:09.469Z,1032.3
2017-04-19T08:13:12.110Z,1032.2
2017-04-19T08:14:14.451Z,1032.3
2017-04-19T08:15:16.654Z,1032.2
2017-04-19T08:16:19.584Z,1032.3
2017-04-19T08:17:21.786Z,1032.5
2017-04-19T08:18:24.881Z,1032.3
2017-04-19T08:19:26.998Z,1032.3
2017-04-19T08:20:29.338Z,1032.3
2017-04-19T08:21:32.179Z,1032.3
2017-04-19T08:22:34.514Z,1032.3
2017-04-19T08:23:37.604Z,1032.4
2017-04-19T08:24:39.812Z,1032.6
2017-04-19T08:25:42.021Z,1032.5
2017-04-19T08:26:44.964Z,1032.4
2017-04-19T08:27:47.166Z,1032.3
2017-04-19T08:28:50.185Z,1032.4
2017-04-19T08:29:52.524Z,1032.3
2017-04-19T08:30:55.104Z,1032.3
2017-04-19T08:31:57.499Z,1032.4
2017-04-19T08:32:59.704Z,1032.4
2017-04-19T08:34:02.645Z,1032.4
2017-04-19T08:35:04.990Z,1032.6
2017-04-19T08:36:07.700Z,1032.4
2017-04-19T08:37:09.901Z,1032.5
2017-04-19T08:39:15.453Z,1032.4
2017-04-19T08:40:17.933Z,1032.5
2017-04-19T08:41:20.275Z,1032.5
2017-04-19T08:42:22.984Z,1032.7
2017-04-19T08:43:25.325Z,1032.7
2017-04-19T08:44:27.963Z,1032.9
2017-04-19T08:45:30.540Z,1032.7
2017-04-19T08:46:32.878Z,1032.7
2017-04-19T08:47:35.217Z,1032.7
2017-04-19T08:48:37.793Z,1032.7
2017-04-19T08:49:40.758Z,1032.7
2017-04-19T08:50:43.092Z,1032.7
2017-04-19T08:51:45.796Z,1032.8
2017-04-19T08:52:48.131Z,1032.6
2017-04-19T08:53:50.473Z,1032.7
2017-04-19T08:54:53.625Z,1032.7
2017-04-19T08:55:55.827Z,1032.6
2017-04-19T08:56:58.165Z,1032.7
2017-04-19T08:58:00.505Z,1032.7
2017-04-19T08:59:03.341Z,1032.6
2017-04-19T09:00:05.924Z,1032.6
2017-04-19T09:01:08.494Z,1032.6
2017-04-19T09:02:10.934Z,1032.5
2017-04-19T09:03:13.136Z,1032.5
2017-04-19T09:04:15.982Z,1032.5
2017-04-19T09:05:18.487Z,1032.9
2017-04-19T09:06:20.824Z,1032.7
2017-04-19T09:07:23.537Z,1032.7
2017-04-19T09:08:26.249Z,1032.6
2017-04-19T09:09:28.586Z,1032.7
2017-04-19T09:10:31.348Z,1032.6
2017-04-19T09:11:33.558Z,1032.6
2017-04-19T09:12:35.891Z,1032.6
2017-04-19T09:13:38.729Z,1032.6
2017-04-19T09:14:41.072Z,1032.5
2017-04-19T09:15:44.173Z,1032.5
2017-04-19T09:16:46.011Z,1032.5
2017-04-19T09:17:48.857Z,1032.6
2017-04-19T09:18:51.124Z,1032.6
2017-04-19T09:19:53.884Z,1032.5
2017-04-19T09:20:56.839Z,1032.7
2017-04-19T09:21:58.670Z,1032.5
2017-04-19T09:23:01.508Z,1032.6
2017-04-19T09:24:04.218Z,1032.6
2017-04-19T09:25:06.620Z,1032.6
2017-04-19T09:26:09.500Z,1032.6
2017-04-19T09:27:11.697Z,1032.7
2017-04-19T09:28:13.903Z,1032.7
2017-04-19T09:29:16.611Z,1032.7
2017-04-19T09:30:19.316Z,1032.7
2017-04-19T09:31:21.913Z,1032.7
2017-04-19T09:32:24.310Z,1032.5
2017-04-19T09:33:26.651Z,1032.7
2017-04-19T09:34:29.224Z,1032.7
2017-04-19T09:35:31.929Z,1032.6
2017-04-19T09:36:34.532Z,1032.6
2017-04-19T09:37:36.867Z,1032.7
2017-04-19T09:38:39.576Z,1032.5
2017-04-19T09:39:41.912Z,1032.6
2017-04-19T09:40:44.617Z,1032.8
2017-04-19T09:41:47.205Z,1032.7
2017-04-19T09:42:49.540Z,1032.6
2017-04-19T09:43:51.877Z,1032.6
2017-04-19T09:44:54.717Z,1032.7
2017-04-19T09:45:57.055Z,1032.8
2017-04-19T09:47:00.200Z,1032.6
2017-04-19T09:48:02.083Z,1032.7
2017-04-19T09:49:04.928Z,1032.8
2017-04-19T09:50:07.267Z,1032.8
2017-04-19T09:51:10.029Z,1032.7
2017-04-19T09:52:12.671Z,1032.8
2017-04-19T09:53:15.004Z,1032.8
2017-04-19T09:55:19.746Z,1032.8
2017-04-19T09:56:22.415Z,1032.9
2017-04-19T09:57:25.514Z,1032.8
2017-04-19T09:58:27.406Z,1032.9
2017-04-19T09:59:30.245Z,1032.9
2017-04-19T10:00:32.591Z,1032.9
2017-04-19T10:01:34.932Z,1032.9
2017-04-19T10:02:38.025Z,1032.8
2017-04-19T10:03:40.368Z,1033
2017-04-19T10:04:42.702Z,1032.9
2017-04-19T10:05:45.545Z,1032.8
2017-04-19T10:06:47.751Z,1032.8
2017-04-19T10:07:50.895Z,1032.8
2017-04-19T10:08:52.730Z,1032.9
2017-04-19T10:09:55.438Z,1032.8
2017-04-19T10:10:57.938Z,1032.8
2017-04-19T10:12:00.648Z,1032.8
2017-04-19T10:13:03.235Z,1032.8
2017-04-19T10:14:05.576Z,1032.8
2017-04-19T10:15:07.919Z,1032.8
2017-04-19T10:16:10.692Z,1032.8
2017-04-19T10:17:12.964Z,1032.8
2017-04-19T10:18:16.029Z,1032.9
2017-04-19T10:19:18.239Z,1032.9
2017-04-19T10:21:23.485Z,1032.9
2017-04-19T10:22:25.686Z,1032.9
2017-04-19T10:23:28.643Z,1032.9
2017-04-19T10:24:30.975Z,1032.9
2017-04-19T10:25:33.681Z,1032.9
2017-04-19T10:26:36.125Z,1032.9
2017-04-19T10:27:38.387Z,1033
2017-04-19T10:28:41.527Z,1032.9
2017-04-19T10:29:43.359Z,1033
2017-04-19T10:30:46.199Z,1032.9
2017-04-19T10:31:48.534Z,1032.9
2017-04-19T10:32:51.240Z,1032.9
2017-04-19T10:33:54.248Z,1032.9
2017-04-19T10:34:56.477Z,1032.9
2017-04-19T10:35:58.819Z,1032.8
2017-04-19T10:37:01.215Z,1032.8
2017-04-19T10:38:03.920Z,1032.8
2017-04-19T10:39:06.640Z,1032.8
2017-04-19T10:40:08.709Z,1032.8
2017-04-19T10:41:11.412Z,1032.8
2017-04-19T10:42:14.153Z,1032.8
2017-04-19T10:43:16.354Z,1032.7
2017-04-19T10:44:19.445Z,1032.8
2017-04-19T10:45:21.840Z,1032.8
2017-04-19T10:46:24.181Z,1032.8
2017-04-19T10:48:29.420Z,1032.9
2017-04-19T10:49:32.019Z,1032.9
2017-04-19T10:50:34.352Z,1032.8
2017-04-19T10:51:37.061Z,1032.9
2017-04-19T10:52:39.400Z,1032.9
2017-04-19T10:53:42.105Z,1032.8
2017-04-19T10:54:44.694Z,1032.9
2017-04-19T10:55:46.896Z,1032.9
2017-04-19T10:56:49.774Z,1032.9
2017-04-19T10:57:52.115Z,1033
2017-04-19T10:58:54.451Z,1032.8
2017-04-19T10:59:57.590Z,1032.8
2017-04-19T11:00:59.792Z,1032.8
2017-04-19T11:02:02.385Z,1032.8
2017-04-19T11:03:04.724Z,1032.8
2017-04-19T11:04:07.433Z,1032.8
2017-04-19T11:05:09.994Z,1032.7
2017-04-19T11:06:12.195Z,1032.8
2017-04-19T11:07:15.037Z,1032.7
2017-04-19T11:08:17.436Z,1032.7
2017-04-19T11:09:19.770Z,1032.8
2017-04-19T11:10:22.724Z,1032.7
2017-04-19T11:11:24.930Z,1032.8
2017-04-19T11:12:27.648Z,1032.8
2017-04-19T11:13:30.407Z,1032.8
2017-04-19T11:14:32.749Z,1032.9
2017-04-19T11:15:35.453Z,1032.8
2017-04-19T11:16:37.789Z,1032.8
2017-04-19T11:17:40.123Z,1032.9
2017-04-19T11:18:43.017Z,1032.9
2017-04-19T11:19:45.224Z,1032.9
2017-04-19T11:20:48.286Z,1032.9
2017-04-19T11:21:50.492Z,1032.9
2017-04-19T11:22:52.828Z,1032.9
2017-04-19T11:24:58.072Z,1032.9
2017-04-19T11:26:00.717Z,1032.9
2017-04-19T11:27:03.031Z,1032.9
2017-04-19T11:28:05.599Z,1032.9
2017-04-19T11:29:08.305Z,1032.9
2017-04-19T11:30:11.015Z,1033
2017-04-19T11:31:13.525Z,1033
2017-04-19T11:32:15.861Z,1033
2017-04-19T11:34:21.102Z,1033
2017-04-19T11:35:23.304Z,1033
2017-04-19T11:36:26.402Z,1033
2017-04-19T11:37:28.610Z,1033.1
2017-04-19T11:38:31.182Z,1033.1
2017-04-19T11:39:33.385Z,1033.1
2017-04-19T11:40:36.234Z,1033.1
2017-04-19T11:41:38.806Z,1033
2017-04-19T11:42:41.378Z,1033.1
2017-04-19T11:43:43.587Z,1033
2017-04-19T11:44:46.294Z,1033.1
2017-04-19T11:45:48.631Z,1033
2017-04-19T11:46:51.526Z,1033
2017-04-19T11:47:53.732Z,1033
2017-04-19T11:48:56.566Z,1033
2017-04-19T11:49:58.897Z,1033
2017-04-19T11:51:01.734Z,1032.9
2017-04-19T11:52:04.372Z,1033
2017-04-19T11:53:06.706Z,1033
2017-04-19T11:54:09.040Z,1033.1
2017-04-19T11:55:11.750Z,1033.1
2017-04-19T11:56:14.080Z,1033.2
2017-04-19T11:57:17.088Z,1033.1
2017-04-19T11:58:19.422Z,1033
2017-04-19T11:59:22.124Z,1033
2017-04-19T12:01:26.862Z,1032.9
2017-04-19T12:02:30.015Z,1033
2017-04-19T12:03:32.211Z,1033
2017-04-19T12:04:34.545Z,1033
2017-04-19T12:05:37.251Z,1033.1
2017-04-19T12:06:39.586Z,1033.2
2017-04-19T12:07:42.547Z,1033
2017-04-19T12:08:44.892Z,1033
2017-04-19T12:09:47.303Z,1033
2017-04-19T12:10:50.008Z,1033
2017-04-19T12:11:52.358Z,1032.9
2017-04-19T12:12:55.092Z,1033
2017-04-19T12:13:57.421Z,1033
2017-04-19T12:15:00.128Z,1033.1
2017-04-19T12:16:02.835Z,1033
2017-04-19T12:17:05.034Z,1033
2017-04-19T12:18:08.176Z,1032.9
2017-04-19T12:19:10.378Z,1033
2017-04-19T12:20:12.715Z,1032.9
2017-04-19T12:21:15.553Z,1032.8
2017-04-19T12:22:17.812Z,1032.9
2017-04-19T12:23:20.959Z,1032.9
2017-04-19T12:24:23.161Z,1032.8
2017-04-19T12:25:25.363Z,1032.8
2017-04-19T12:26:28.067Z,1032.9
2017-04-19T12:27:30.459Z,1032.8
2017-04-19T12:28:33.552Z,1032.9
2017-04-19T12:29:35.753Z,1032.8
2017-04-19T12:30:38.095Z,1032.8
2017-04-19T12:31:41.058Z,1032.8
2017-04-19T12:32:43.458Z,1032.8
2017-04-19T12:33:46.099Z,1032.7
2017-04-19T12:34:48.447Z,1032.7
2017-04-19T12:35:50.784Z,1032.7
2017-04-19T12:36:53.339Z,1032.7
2017-04-19T12:37:56.041Z,1032.7
2017-04-19T12:38:59.185Z,1032.7
2017-04-19T12:40:01.021Z,1032.7
2017-04-19T12:41:03.866Z,1032.7
2017-04-19T12:42:06.429Z,1032.6
2017-04-19T12:43:08.716Z,1032.7
2017-04-19T12:44:11.719Z,1032.6
2017-04-19T12:45:14.056Z,1032.6
2017-04-19T12:47:18.803Z,1032.7
2017-04-19T12:48:21.649Z,1032.7
2017-04-19T12:49:24.287Z,1032.7
2017-04-19T12:50:26.528Z,1032.7
2017-04-19T12:51:29.372Z,1032.6
2017-04-19T12:52:31.721Z,1032.6
2017-04-19T12:53:34.574Z,1032.6
2017-04-19T12:54:37.213Z,1032.6
2017-04-19T12:56:41.954Z,1032.6
2017-04-19T12:57:44.796Z,1032.6
2017-04-19T12:58:47.130Z,1032.7
2017-04-19T12:59:49.722Z,1032.7
2017-04-19T13:00:52.058Z,1032.7
2017-04-19T13:01:54.771Z,1032.8
2017-04-19T13:02:57.118Z,1032.7
2017-04-19T13:03:59.960Z,1032.6
2017-04-19T13:05:02.966Z,1032.7
2017-04-19T13:06:05.173Z,1032.7
2017-04-19T13:07:07.741Z,1032.7
2017-04-19T13:08:10.007Z,1032.7
2017-04-19T13:09:12.848Z,1032.8
2017-04-19T13:10:15.298Z,1032.7
2017-04-19T13:11:17.870Z,1032.7
2017-04-19T13:12:20.075Z,1032.7
2017-04-19T13:13:22.643Z,1032.8
2017-04-19T13:14:25.480Z,1032.8
2017-04-19T13:15:28.441Z,1032.7
2017-04-19T13:16:30.275Z,1032.8
2017-04-19T13:17:32.981Z,1032.8
2017-04-19T13:18:35.816Z,1032.7
2017-04-19T13:19:38.016Z,1032.7
2017-04-19T13:20:40.888Z,1032.8
2017-04-19T13:21:43.092Z,1032.7
2017-04-19T13:23:48.195Z,1032.7
2017-04-19T13:24:50.906Z,1032.7
2017-04-19T13:25:53.917Z,1032.7
2017-04-19T13:27:58.526Z,1032.7
2017-04-19T13:29:01.227Z,1032.7
2017-04-19T13:30:03.566Z,1032.7
2017-04-19T13:31:06.575Z,1032.7
2017-04-19T13:32:08.912Z,1032.7
2017-04-19T13:33:11.617Z,1032.8
2017-04-19T13:34:13.955Z,1032.7
2017-04-19T13:35:16.519Z,1032.8
2017-04-19T13:36:19.526Z,1032.7
2017-04-19T13:37:21.357Z,1032.7
2017-04-19T13:38:24.194Z,1032.8
2017-04-19T13:39:26.587Z,1032.8
2017-04-19T13:40:29.293Z,1032.8
2017-04-19T13:41:32.264Z,1032.7
2017-04-19T13:42:34.259Z,1032.8
2017-04-19T13:43:37.093Z,1032.8
2017-04-19T13:44:39.484Z,1032.7
2017-04-19T13:45:41.819Z,1032.7
2017-04-19T13:46:44.908Z,1032.7